sensor_id;sensor_type;location;lat;lon;timestamp;pressure;altitude;pressure_sealevel;temperature;humidity
23427;BME280;41148;45.420;10.952;2022-09-20T00:00:42;100787.97;;;16.46;44.18
23427;BME280;41148;45.420;10.952;2022-09-20T00:03:11;100783.25;;;16.69;44.26
23427;BME280;41148;45.420;10.952;2022-09-20T00:05:39;100787.81;;;16.67;44.54
23427;BME280;41148;45.420;10.952;2022-09-20T00:08:08;100787.19;;;16.79;44.09
23427;BME280;41148;45.420;10.952;2022-09-20T00:10:36;100781.19;;;16.74;42.19
23427;BME280;41148;45.420;10.952;2022-09-20T00:13:06;100782.75;;;16.60;41.26
23427;BME280;41148;45.420;10.952;2022-09-20T00:15:33;100785.53;;;16.76;40.91
23427;BME280;41148;45.420;10.952;2022-09-20T00:18:01;100789.09;;;16.77;39.44
23427;BME280;41148;45.420;10.952;2022-09-20T00:20:28;100789.09;;;16.77;38.10
23427;BME280;41148;45.420;10.952;2022-09-20T00:22:55;100784.41;;;16.98;37.94
23427;BME280;41148;45.420;10.952;2022-09-20T00:25:22;100781.50;;;17.02;38.16
23427;BME280;41148;45.420;10.952;2022-09-20T00:27:50;100786.78;;;17.04;37.73
23427;BME280;41148;45.420;10.952;2022-09-20T00:30:17;100790.34;;;17.04;37.83
23427;BME280;41148;45.420;10.952;2022-09-20T00:32:44;100795.25;;;16.96;38.11
23427;BME280;41148;45.420;10.952;2022-09-20T00:35:11;100785.78;;;16.89;37.78
23427;BME280;41148;45.420;10.952;2022-09-20T00:37:40;100785.78;;;16.72;38.61
23427;BME280;41148;45.420;10.952;2022-09-20T00:40:09;100790.84;;;16.95;38.62
23427;BME280;41148;45.420;10.952;2022-09-20T00:42:36;100781.31;;;17.05;38.78
23427;BME280;41148;45.420;10.952;2022-09-20T00:45:05;100780.28;;;17.08;39.11
23427;BME280;41148;45.420;10.952;2022-09-20T00:47:34;100775.84;;;17.07;39.51
23427;BME280;41148;45.420;10.952;2022-09-20T00:52:34;100767.09;;;16.86;40.00
23427;BME280;41148;45.420;10.952;2022-09-20T00:55:04;100772.72;;;16.99;39.47
23427;BME280;41148;45.420;10.952;2022-09-20T00:57:33;100770.63;;;17.04;39.38
23427;BME280;41148;45.420;10.952;2022-09-20T01:00:06;100772.16;;;17.09;39.37
23427;BME280;41148;45.420;10.952;2022-09-20T01:02:34;100771.78;;;17.15;39.49
23427;BME280;41148;45.420;10.952;2022-09-20T01:05:02;100773.22;;;17.23;39.15
23427;BME280;41148;45.420;10.952;2022-09-20T01:07:30;100782.44;;;17.34;38.85
23427;BME280;41148;45.420;10.952;2022-09-20T01:09:57;100767.69;;;17.41;38.63
23427;BME280;41148;45.420;10.952;2022-09-20T01:12:28;100773.06;;;17.41;38.53
23427;BME280;41148;45.420;10.952;2022-09-20T01:14:56;100775.09;;;17.38;38.97
23427;BME280;41148;45.420;10.952;2022-09-20T01:17:25;100775.50;;;17.46;38.78
23427;BME280;41148;45.420;10.952;2022-09-20T01:25:17;100779.44;;;17.40;39.11
23427;BME280;41148;45.420;10.952;2022-09-20T01:27:53;100783.16;;;17.38;39.63
23427;BME280;41148;45.420;10.952;2022-09-20T01:30:21;100784.53;;;17.45;39.34
23427;BME280;41148;45.420;10.952;2022-09-20T01:35:24;100785.03;;;17.36;40.15
23427;BME280;41148;45.420;10.952;2022-09-20T01:40:55;100790.31;;;17.22;42.23
23427;BME280;41148;45.420;10.952;2022-09-20T01:46:30;100786.88;;;17.35;40.88
23427;BME280;41148;45.420;10.952;2022-09-20T02:00:12;100791.28;;;17.36;41.55
23427;BME280;41148;45.420;10.952;2022-09-20T02:05:27;100794.56;;;17.26;41.53
23427;BME280;41148;45.420;10.952;2022-09-20T02:08:07;100791.13;;;17.06;42.15
23427;BME280;41148;45.420;10.952;2022-09-20T02:13:09;100799.88;;;17.27;42.14
23427;BME280;41148;45.420;10.952;2022-09-20T02:31:35;100798.81;;;17.14;44.60
23427;BME280;41148;45.420;10.952;2022-09-20T02:34:18;100794.13;;;17.17;45.70
23427;BME280;41148;45.420;10.952;2022-09-20T02:36:59;100797.25;;;17.10;46.71
23427;BME280;41148;45.420;10.952;2022-09-20T02:42:27;100790.84;;;16.95;48.08
23427;BME280;41148;45.420;10.952;2022-09-20T02:45:07;100790.91;;;16.94;48.23
23427;BME280;41148;45.420;10.952;2022-09-20T02:47:37;100787.97;;;16.98;48.54
23427;BME280;41148;45.420;10.952;2022-09-20T03:00:47;100796.13;;;17.14;48.86
23427;BME280;41148;45.420;10.952;2022-09-20T03:03:50;100791.28;;;17.21;48.78
23427;BME280;41148;45.420;10.952;2022-09-20T03:09:53;100788.91;;;17.14;49.10
23427;BME280;41148;45.420;10.952;2022-09-20T03:12:01;100786.13;;;17.16;49.36
23427;BME280;41148;45.420;10.952;2022-09-20T03:14:34;100787.72;;;17.20;49.57
23427;BME280;41148;45.420;10.952;2022-09-20T03:27:58;100789.94;;;17.12;49.98
23427;BME280;41148;45.420;10.952;2022-09-20T03:38:07;100796.44;;;17.08;50.02
23427;BME280;41148;45.420;10.952;2022-09-20T03:45:49;100796.19;;;17.12;49.87
23427;BME280;41148;45.420;10.952;2022-09-20T03:56:27;100799.94;;;16.75;51.14
23427;BME280;41148;45.420;10.952;2022-09-20T04:09:50;100783.03;;;16.73;49.02
23427;BME280;41148;45.420;10.952;2022-09-20T04:17:44;100796.16;;;16.79;46.21
23427;BME280;41148;45.420;10.952;2022-09-20T04:20:33;100804.28;;;16.78;45.94
23427;BME280;41148;45.420;10.952;2022-09-20T04:23:11;100803.00;;;16.50;46.51
23427;BME280;41148;45.420;10.952;2022-09-20T04:25:41;100800.44;;;16.47;46.76
23427;BME280;41148;45.420;10.952;2022-09-20T04:28:12;100810.25;;;16.48;47.99
23427;BME280;41148;45.420;10.952;2022-09-20T04:30:41;100810.91;;;16.53;48.07
23427;BME280;41148;45.420;10.952;2022-09-20T04:33:19;100814.94;;;16.45;48.42
23427;BME280;41148;45.420;10.952;2022-09-20T04:38:47;100821.66;;;16.17;49.63
23427;BME280;41148;45.420;10.952;2022-09-20T04:49:38;100823.66;;;16.14;50.78
23427;BME280;41148;45.420;10.952;2022-09-20T05:24:45;100879.78;;;16.01;50.19
23427;BME280;41148;45.420;10.952;2022-09-20T05:29:49;100888.22;;;15.93;49.33
23427;BME280;41148;45.420;10.952;2022-09-20T05:32:22;100878.91;;;16.00;49.52
23427;BME280;41148;45.420;10.952;2022-09-20T05:34:52;100883.34;;;16.01;48.61
23427;BME280;41148;45.420;10.952;2022-09-20T05:42:51;100891.69;;;16.33;47.63
23427;BME280;41148;45.420;10.952;2022-09-20T05:47:54;100900.81;;;16.12;49.27
23427;BME280;41148;45.420;10.952;2022-09-20T05:50:43;100910.59;;;16.13;48.95
23427;BME280;41148;45.420;10.952;2022-09-20T06:04:30;100924.03;;;15.94;51.56
23427;BME280;41148;45.420;10.952;2022-09-20T06:09:57;100933.06;;;15.72;53.10
23427;BME280;41148;45.420;10.952;2022-09-20T06:17:42;100933.03;;;15.93;52.93
23427;BME280;41148;45.420;10.952;2022-09-20T06:22:44;100930.06;;;15.99;53.21
23427;BME280;41148;45.420;10.952;2022-09-20T06:25:24;100934.34;;;16.03;52.96
23427;BME280;41148;45.420;10.952;2022-09-20T06:28:15;100933.94;;;16.12;52.24
23427;BME280;41148;45.420;10.952;2022-09-20T06:30:50;100935.44;;;16.18;53.32
23427;BME280;41148;45.420;10.952;2022-09-20T06:33:22;100932.09;;;16.31;50.81
23427;BME280;41148;45.420;10.952;2022-09-20T06:39:01;100927.19;;;16.58;47.21
23427;BME280;41148;45.420;10.952;2022-09-20T06:41:50;100920.63;;;16.83;45.98
23427;BME280;41148;45.420;10.952;2022-09-20T06:44:18;100924.06;;;17.04;46.70
23427;BME280;41148;45.420;10.952;2022-09-20T06:46:45;100921.94;;;17.10;46.09
23427;BME280;41148;45.420;10.952;2022-09-20T06:49:12;100930.97;;;17.09;44.78
23427;BME280;41148;45.420;10.952;2022-09-20T06:51:39;100928.66;;;17.02;45.43
23427;BME280;41148;45.420;10.952;2022-09-20T06:54:11;100926.84;;;17.02;44.36
23427;BME280;41148;45.420;10.952;2022-09-20T06:56:41;100929.94;;;17.12;44.58
23427;BME280;41148;45.420;10.952;2022-09-20T06:59:10;100927.63;;;17.22;43.49
23427;BME280;41148;45.420;10.952;2022-09-20T07:01:38;100928.50;;;17.57;42.38
23427;BME280;41148;45.420;10.952;2022-09-20T07:04:06;100925.91;;;19.29;39.24
23427;BME280;41148;45.420;10.952;2022-09-20T07:06:34;100928.44;;;20.47;36.65
23427;BME280;41148;45.420;10.952;2022-09-20T07:09:02;100936.06;;;19.39;38.79
23427;BME280;41148;45.420;10.952;2022-09-20T07:11:29;100936.06;;;18.79;40.45
23427;BME280;41148;45.420;10.952;2022-09-20T07:13:58;100937.44;;;18.39;40.87
23427;BME280;41148;45.420;10.952;2022-09-20T07:16:25;100929.84;;;18.14;41.05
23427;BME280;41148;45.420;10.952;2022-09-20T07:18:53;100933.50;;;18.13;42.11
23427;BME280;41148;45.420;10.952;2022-09-20T07:21:20;100931.84;;;18.11;41.76
23427;BME280;41148;45.420;10.952;2022-09-20T07:23:47;100931.59;;;17.99;42.78
23427;BME280;41148;45.420;10.952;2022-09-20T07:28:46;100937.25;;;18.11;41.96
23427;BME280;41148;45.420;10.952;2022-09-20T07:31:14;100936.16;;;18.15;41.97
23427;BME280;41148;45.420;10.952;2022-09-20T07:33:41;100936.28;;;18.12;42.35
23427;BME280;41148;45.420;10.952;2022-09-20T07:36:09;100937.50;;;18.22;41.18
23427;BME280;41148;45.420;10.952;2022-09-20T07:38:38;100943.28;;;18.16;41.84
23427;BME280;41148;45.420;10.952;2022-09-20T07:41:06;100955.72;;;18.18;42.49
23427;BME280;41148;45.420;10.952;2022-09-20T07:43:33;100950.66;;;18.28;42.44
23427;BME280;41148;45.420;10.952;2022-09-20T07:46:01;100953.09;;;18.33;42.06
23427;BME280;41148;45.420;10.952;2022-09-20T07:48:29;100948.59;;;18.49;41.98
23427;BME280;41148;45.420;10.952;2022-09-20T07:50:58;100948.50;;;18.50;42.39
23427;BME280;41148;45.420;10.952;2022-09-20T07:53:30;100948.50;;;18.50;42.43
23427;BME280;41148;45.420;10.952;2022-09-20T07:55:58;100954.25;;;18.60;42.74
23427;BME280;41148;45.420;10.952;2022-09-20T07:58:26;100954.63;;;18.70;42.61
23427;BME280;41148;45.420;10.952;2022-09-20T08:00:55;100956.09;;;18.75;42.88
23427;BME280;41148;45.420;10.952;2022-09-20T08:03:22;100949.56;;;18.79;42.46
23427;BME280;41148;45.420;10.952;2022-09-20T08:05:50;100952.50;;;18.91;42.82
23427;BME280;41148;45.420;10.952;2022-09-20T08:08:17;100948.25;;;19.02;43.14
23427;BME280;41148;45.420;10.952;2022-09-20T08:10:45;100952.13;;;19.12;43.08
23427;BME280;41148;45.420;10.952;2022-09-20T08:13:12;100955.69;;;19.13;42.39
23427;BME280;41148;45.420;10.952;2022-09-20T08:16:03;100958.06;;;19.33;43.64
23427;BME280;41148;45.420;10.952;2022-09-20T08:18:31;100959.91;;;19.33;43.24
23427;BME280;41148;45.420;10.952;2022-09-20T08:21:16;100959.75;;;19.50;42.70
23427;BME280;41148;45.420;10.952;2022-09-20T08:23:44;100961.09;;;19.87;41.65
23427;BME280;41148;45.420;10.952;2022-09-20T08:26:14;100961.19;;;20.14;41.58
23427;BME280;41148;45.420;10.952;2022-09-20T08:28:44;100962.44;;;20.23;41.10
23427;BME280;41148;45.420;10.952;2022-09-20T08:31:13;100962.06;;;20.29;41.34
23427;BME280;41148;45.420;10.952;2022-09-20T08:33:41;100957.59;;;20.56;40.83
23427;BME280;41148;45.420;10.952;2022-09-20T08:36:11;100955.28;;;20.50;41.10
23427;BME280;41148;45.420;10.952;2022-09-20T08:38:38;100962.81;;;20.45;41.25
23427;BME280;41148;45.420;10.952;2022-09-20T08:41:28;100963.09;;;20.41;42.32
23427;BME280;41148;45.420;10.952;2022-09-20T08:43:59;100961.47;;;20.52;42.10
23427;BME280;41148;45.420;10.952;2022-09-20T08:46:29;100957.16;;;21.04;41.02
23427;BME280;41148;45.420;10.952;2022-09-20T08:49:02;100955.00;;;21.36;40.83
23427;BME280;41148;45.420;10.952;2022-09-20T08:51:31;100953.53;;;21.95;40.57
23427;BME280;41148;45.420;10.952;2022-09-20T08:53:59;100946.38;;;22.56;38.85
23427;BME280;41148;45.420;10.952;2022-09-20T08:56:28;100943.16;;;22.39;38.18
23427;BME280;41148;45.420;10.952;2022-09-20T08:58:57;100944.63;;;22.68;37.67
23427;BME280;41148;45.420;10.952;2022-09-20T09:01:26;100947.78;;;22.99;37.47
23427;BME280;41148;45.420;10.952;2022-09-20T09:04:01;100950.03;;;23.40;36.80
23427;BME280;41148;45.420;10.952;2022-09-20T09:06:37;100951.50;;;23.33;36.32
23427;BME280;41148;45.420;10.952;2022-09-20T09:09:05;100946.00;;;23.22;36.40
23427;BME280;41148;45.420;10.952;2022-09-20T09:11:33;100945.53;;;22.80;37.03
23427;BME280;41148;45.420;10.952;2022-09-20T09:14:02;100956.13;;;22.10;38.01
23427;BME280;41148;45.420;10.952;2022-09-20T09:16:31;100948.44;;;21.91;38.66
23427;BME280;41148;45.420;10.952;2022-09-20T09:21:48;100947.78;;;21.87;38.39
23427;BME280;41148;45.420;10.952;2022-09-20T09:24:16;100939.31;;;21.54;39.02
23427;BME280;41148;45.420;10.952;2022-09-20T09:26:46;100940.34;;;21.38;39.22
23427;BME280;41148;45.420;10.952;2022-09-20T09:29:15;100939.50;;;21.38;39.82
23427;BME280;41148;45.420;10.952;2022-09-20T09:31:44;100940.19;;;21.54;39.77
23427;BME280;41148;45.420;10.952;2022-09-20T09:34:33;100941.16;;;21.53;39.63
23427;BME280;41148;45.420;10.952;2022-09-20T09:37:04;100937.41;;;21.29;39.97
23427;BME280;41148;45.420;10.952;2022-09-20T09:39:35;100926.41;;;21.05;40.40
23427;BME280;41148;45.420;10.952;2022-09-20T09:42:19;100930.50;;;21.10;41.19
23427;BME280;41148;45.420;10.952;2022-09-20T09:44:48;100924.31;;;20.96;41.54
23427;BME280;41148;45.420;10.952;2022-09-20T09:47:24;100926.03;;;20.97;41.51
23427;BME280;41148;45.420;10.952;2022-09-20T09:53:22;100916.66;;;21.15;41.71
23427;BME280;41148;45.420;10.952;2022-09-20T09:56:10;100913.03;;;21.29;41.91
23427;BME280;41148;45.420;10.952;2022-09-20T10:04:33;100910.19;;;20.91;40.70
23427;BME280;41148;45.420;10.952;2022-09-20T10:07:05;100911.69;;;20.82;39.83
23427;BME280;41148;45.420;10.952;2022-09-20T10:17:36;100897.38;;;20.80;41.11
23427;BME280;41148;45.420;10.952;2022-09-20T10:34:15;100887.41;;;21.20;40.72
23427;BME280;41148;45.420;10.952;2022-09-20T10:36:53;100890.84;;;21.09;40.31
23427;BME280;41148;45.420;10.952;2022-09-20T11:01:29;100873.75;;;21.22;39.98
23427;BME280;41148;45.420;10.952;2022-09-20T11:08:48;100874.25;;;21.01;40.79
23427;BME280;41148;45.420;10.952;2022-09-20T11:11:27;100873.84;;;21.07;40.01
23427;BME280;41148;45.420;10.952;2022-09-20T11:16:34;100871.47;;;21.15;39.80
23427;BME280;41148;45.420;10.952;2022-09-20T11:19:04;100871.59;;;21.14;40.53
23427;BME280;41148;45.420;10.952;2022-09-20T11:21:38;100865.13;;;21.29;41.83
23427;BME280;41148;45.420;10.952;2022-09-20T11:24:21;100871.09;;;21.34;41.64
23427;BME280;41148;45.420;10.952;2022-09-20T11:26:55;100873.91;;;21.46;41.28
23427;BME280;41148;45.420;10.952;2022-09-20T11:29:25;100870.44;;;21.31;43.10
23427;BME280;41148;45.420;10.952;2022-09-20T11:31:54;100865.38;;;21.12;42.12
23427;BME280;41148;45.420;10.952;2022-09-20T11:34:25;100859.88;;;21.13;41.95
23427;BME280;41148;45.420;10.952;2022-09-20T11:36:55;100866.25;;;21.12;42.05
23427;BME280;41148;45.420;10.952;2022-09-20T11:39:27;100862.72;;;21.25;43.05
23427;BME280;41148;45.420;10.952;2022-09-20T11:41:56;100859.81;;;21.40;42.21
23427;BME280;41148;45.420;10.952;2022-09-20T11:44:26;100851.53;;;21.17;42.87
23427;BME280;41148;45.420;10.952;2022-09-20T11:49:26;100853.31;;;21.43;43.11
23427;BME280;41148;45.420;10.952;2022-09-20T11:56:54;100840.84;;;21.40;42.42
23427;BME280;41148;45.420;10.952;2022-09-20T12:01:55;100848.44;;;21.74;42.69
23427;BME280;41148;45.420;10.952;2022-09-20T12:04:24;100840.50;;;21.70;41.77
23427;BME280;41148;45.420;10.952;2022-09-20T12:07:01;100837.34;;;21.77;41.97
23427;BME280;41148;45.420;10.952;2022-09-20T12:09:36;100835.38;;;21.79;42.05
23427;BME280;41148;45.420;10.952;2022-09-20T12:12:14;100833.34;;;21.82;42.40
23427;BME280;41148;45.420;10.952;2022-09-20T12:14:55;100830.63;;;21.69;42.43
23427;BME280;41148;45.420;10.952;2022-09-20T12:28:37;100821.06;;;21.13;43.47
23427;BME280;41148;45.420;10.952;2022-09-20T12:34:46;100808.88;;;21.33;44.32
23427;BME280;41148;45.420;10.952;2022-09-20T12:39:27;100808.75;;;21.47;43.31
23427;BME280;41148;45.420;10.952;2022-09-20T12:42:00;100810.81;;;21.43;43.32
23427;BME280;41148;45.420;10.952;2022-09-20T12:52:37;100794.59;;;21.80;44.52
23427;BME280;41148;45.420;10.952;2022-09-20T12:58:00;100790.16;;;21.79;43.90
23427;BME280;41148;45.420;10.952;2022-09-20T13:03:26;100787.91;;;21.73;43.68
23427;BME280;41148;45.420;10.952;2022-09-20T13:08:41;100788.78;;;21.61;43.31
23427;BME280;41148;45.420;10.952;2022-09-20T13:11:11;100787.50;;;21.54;44.53
23427;BME280;41148;45.420;10.952;2022-09-20T13:16:25;100782.97;;;21.29;43.69
23427;BME280;41148;45.420;10.952;2022-09-20T13:19:05;100777.19;;;21.21;43.84
23427;BME280;41148;45.420;10.952;2022-09-20T13:21:35;100780.00;;;21.19;44.67
23427;BME280;41148;45.420;10.952;2022-09-20T13:24:03;100774.47;;;21.21;44.86
23427;BME280;41148;45.420;10.952;2022-09-20T13:26:34;100768.63;;;21.14;44.84
23427;BME280;41148;45.420;10.952;2022-09-20T13:29:06;100765.59;;;21.19;44.87
23427;BME280;41148;45.420;10.952;2022-09-20T13:31:38;100762.56;;;21.23;45.05
23427;BME280;41148;45.420;10.952;2022-09-20T13:34:13;100762.25;;;21.15;43.90
23427;BME280;41148;45.420;10.952;2022-09-20T13:36:40;100760.28;;;21.17;43.88
23427;BME280;41148;45.420;10.952;2022-09-20T13:39:19;100757.88;;;21.12;44.03
23427;BME280;41148;45.420;10.952;2022-09-20T13:41:49;100754.97;;;21.03;45.72
23427;BME280;41148;45.420;10.952;2022-09-20T13:44:16;100745.00;;;20.91;44.07
23427;BME280;41148;45.420;10.952;2022-09-20T13:46:45;100752.47;;;20.87;45.53
23427;BME280;41148;45.420;10.952;2022-09-20T13:49:14;100748.78;;;20.88;45.74
23427;BME280;41148;45.420;10.952;2022-09-20T13:51:43;100740.69;;;20.88;44.67
23427;BME280;41148;45.420;10.952;2022-09-20T13:56:44;100744.25;;;20.89;44.80
23427;BME280;41148;45.420;10.952;2022-09-20T13:59:11;100731.22;;;20.94;44.77
23427;BME280;41148;45.420;10.952;2022-09-20T14:01:52;100730.69;;;21.01;44.28
23427;BME280;41148;45.420;10.952;2022-09-20T14:04:21;100732.00;;;21.08;44.26
23427;BME280;41148;45.420;10.952;2022-09-20T14:06:49;100729.28;;;21.08;43.99
23427;BME280;41148;45.420;10.952;2022-09-20T14:09:26;100732.97;;;21.07;45.09
23427;BME280;41148;45.420;10.952;2022-09-20T14:11:54;100729.06;;;21.11;44.88
23427;BME280;41148;45.420;10.952;2022-09-20T14:14:22;100722.91;;;21.09;45.18
23427;BME280;41148;45.420;10.952;2022-09-20T14:16:50;100730.03;;;21.10;44.58
23427;BME280;41148;45.420;10.952;2022-09-20T14:19:19;100725.06;;;21.17;44.08
23427;BME280;41148;45.420;10.952;2022-09-20T14:21:49;100717.38;;;21.24;43.84
23427;BME280;41148;45.420;10.952;2022-09-20T14:26:58;100709.81;;;21.29;44.04
23427;BME280;41148;45.420;10.952;2022-09-20T14:34:44;100703.41;;;21.30;43.72
23427;BME280;41148;45.420;10.952;2022-09-20T14:37:15;100700.50;;;21.33;43.28
23427;BME280;41148;45.420;10.952;2022-09-20T14:39:47;100704.34;;;21.41;43.31
23427;BME280;41148;45.420;10.952;2022-09-20T14:42:34;100708.91;;;21.54;42.93
23427;BME280;41148;45.420;10.952;2022-09-20T14:45:04;100700.25;;;21.36;43.19
23427;BME280;41148;45.420;10.952;2022-09-20T14:47:38;100709.13;;;21.25;43.57
23427;BME280;41148;45.420;10.952;2022-09-20T14:50:25;100700.81;;;21.15;43.75
23427;BME280;41148;45.420;10.952;2022-09-20T14:55:29;100692.44;;;21.31;44.06
23427;BME280;41148;45.420;10.952;2022-09-20T14:58:05;100693.09;;;21.35;43.34
23427;BME280;41148;45.420;10.952;2022-09-20T15:00:56;100692.25;;;21.34;43.99
23427;BME280;41148;45.420;10.952;2022-09-20T15:03:29;100693.41;;;21.43;43.97
23427;BME280;41148;45.420;10.952;2022-09-20T15:05:58;100698.50;;;21.48;42.94
23427;BME280;41148;45.420;10.952;2022-09-20T15:08:25;100686.34;;;21.53;41.69
23427;BME280;41148;45.420;10.952;2022-09-20T15:10:53;100703.88;;;21.60;41.40
23427;BME280;41148;45.420;10.952;2022-09-20T15:13:20;100690.53;;;21.57;41.63
23427;BME280;41148;45.420;10.952;2022-09-20T15:15:48;100686.22;;;21.55;41.94
23427;BME280;41148;45.420;10.952;2022-09-20T15:18:20;100682.53;;;21.56;42.14
23427;BME280;41148;45.420;10.952;2022-09-20T15:20:48;100681.91;;;21.52;42.29
23427;BME280;41148;45.420;10.952;2022-09-20T15:23:16;100678.28;;;21.52;42.15
23427;BME280;41148;45.420;10.952;2022-09-20T15:25:43;100680.16;;;21.51;42.37
23427;BME280;41148;45.420;10.952;2022-09-20T15:28:12;100685.56;;;21.51;42.60
23427;BME280;41148;45.420;10.952;2022-09-20T15:30:44;100685.47;;;21.53;42.45
23427;BME280;41148;45.420;10.952;2022-09-20T15:33:12;100679.28;;;21.51;42.36
23427;BME280;41148;45.420;10.952;2022-09-20T15:35:41;100688.75;;;21.45;42.90
23427;BME280;41148;45.420;10.952;2022-09-20T15:38:08;100683.31;;;21.45;43.06
23427;BME280;41148;45.420;10.952;2022-09-20T15:40:38;100690.59;;;21.45;43.07
23427;BME280;41148;45.420;10.952;2022-09-20T15:43:06;100685.06;;;21.46;42.96
23427;BME280;41148;45.420;10.952;2022-09-20T15:45:35;100675.81;;;21.49;43.83
23427;BME280;41148;45.420;10.952;2022-09-20T15:48:15;100678.09;;;21.42;43.91
23427;BME280;41148;45.420;10.952;2022-09-20T15:51:06;100680.94;;;21.40;43.53
23427;BME280;41148;45.420;10.952;2022-09-20T15:53:34;100680.31;;;21.37;42.95
23427;BME280;41148;45.420;10.952;2022-09-20T15:56:03;100681.28;;;21.23;42.80
23427;BME280;41148;45.420;10.952;2022-09-20T15:58:32;100677.28;;;21.16;42.90
23427;BME280;41148;45.420;10.952;2022-09-20T16:01:03;100683.56;;;21.17;43.35
23427;BME280;41148;45.420;10.952;2022-09-20T16:03:32;100674.47;;;21.18;43.70
23427;BME280;41148;45.420;10.952;2022-09-20T16:06:00;100676.53;;;21.27;43.46
23427;BME280;41148;45.420;10.952;2022-09-20T16:08:48;100679.09;;;21.41;43.20
23427;BME280;41148;45.420;10.952;2022-09-20T16:11:16;100679.88;;;21.30;43.48
23427;BME280;41148;45.420;10.952;2022-09-20T16:13:58;100672.06;;;21.26;43.83
23427;BME280;41148;45.420;10.952;2022-09-20T16:16:27;100677.28;;;21.29;44.11
23427;BME280;41148;45.420;10.952;2022-09-20T16:18:55;100672.19;;;21.24;44.14
23427;BME280;41148;45.420;10.952;2022-09-20T16:21:41;100668.94;;;21.19;44.32
23427;BME280;41148;45.420;10.952;2022-09-20T16:24:09;100666.22;;;21.19;44.19
23427;BME280;41148;45.420;10.952;2022-09-20T16:26:38;100671.75;;;21.18;44.28
23427;BME280;41148;45.420;10.952;2022-09-20T16:29:06;100677.16;;;21.18;44.46
23427;BME280;41148;45.420;10.952;2022-09-20T16:34:11;100683.38;;;21.07;44.75
23427;BME280;41148;45.420;10.952;2022-09-20T16:36:39;100676.72;;;21.11;44.88
23427;BME280;41148;45.420;10.952;2022-09-20T16:39:10;100676.41;;;21.15;45.23
23427;BME280;41148;45.420;10.952;2022-09-20T16:41:37;100679.88;;;21.18;44.47
23427;BME280;41148;45.420;10.952;2022-09-20T16:44:05;100683.69;;;21.15;44.72
23427;BME280;41148;45.420;10.952;2022-09-20T16:46:33;100680.84;;;21.17;44.79
23427;BME280;41148;45.420;10.952;2022-09-20T16:49:03;100684.97;;;21.09;45.17
23427;BME280;41148;45.420;10.952;2022-09-20T16:51:33;100680.78;;;21.05;45.40
23427;BME280;41148;45.420;10.952;2022-09-20T16:54:01;100689.31;;;20.99;45.71
23427;BME280;41148;45.420;10.952;2022-09-20T16:56:30;100679.59;;;20.97;45.96
23427;BME280;41148;45.420;10.952;2022-09-20T16:59:00;100681.44;;;20.96;45.99
23427;BME280;41148;45.420;10.952;2022-09-20T17:01:27;100686.50;;;20.88;46.21
23427;BME280;41148;45.420;10.952;2022-09-20T17:03:55;100691.94;;;20.88;46.14
23427;BME280;41148;45.420;10.952;2022-09-20T17:06:23;100689.75;;;20.80;46.98
23427;BME280;41148;45.420;10.952;2022-09-20T17:08:52;100687.06;;;20.80;46.58
23427;BME280;41148;45.420;10.952;2022-09-20T17:11:26;100696.78;;;20.83;46.56
23427;BME280;41148;45.420;10.952;2022-09-20T17:13:53;100694.84;;;20.72;47.02
23427;BME280;41148;45.420;10.952;2022-09-20T17:16:27;100703.41;;;20.79;46.58
23427;BME280;41148;45.420;10.952;2022-09-20T17:18:56;100697.78;;;20.69;47.00
23427;BME280;41148;45.420;10.952;2022-09-20T17:21:24;100710.56;;;20.67;46.95
23427;BME280;41148;45.420;10.952;2022-09-20T17:23:53;100707.41;;;20.61;47.37
23427;BME280;41148;45.420;10.952;2022-09-20T17:26:25;100709.47;;;20.57;47.07
23427;BME280;41148;45.420;10.952;2022-09-20T17:28:53;100709.34;;;20.58;47.05
23427;BME280;41148;45.420;10.952;2022-09-20T17:31:25;100717.59;;;20.57;46.90
23427;BME280;41148;45.420;10.952;2022-09-20T17:33:55;100717.00;;;20.52;47.37
23427;BME280;41148;45.420;10.952;2022-09-20T17:36:27;100727.94;;;20.50;47.33
23427;BME280;41148;45.420;10.952;2022-09-20T17:38:55;100730.09;;;20.45;47.64
23427;BME280;41148;45.420;10.952;2022-09-20T17:41:28;100732.97;;;20.42;49.93
23427;BME280;41148;45.420;10.952;2022-09-20T17:43:56;100733.59;;;20.33;50.83
23427;BME280;41148;45.420;10.952;2022-09-20T17:46:25;100736.81;;;20.25;51.71
23427;BME280;41148;45.420;10.952;2022-09-20T17:48:55;100742.84;;;20.16;52.48
23427;BME280;41148;45.420;10.952;2022-09-20T17:51:24;100738.16;;;20.06;53.22
23427;BME280;41148;45.420;10.952;2022-09-20T17:53:52;100747.19;;;19.92;54.02
23427;BME280;41148;45.420;10.952;2022-09-20T17:56:22;100753.31;;;19.81;54.63
23427;BME280;41148;45.420;10.952;2022-09-20T17:58:50;100754.13;;;19.69;55.14
23427;BME280;41148;45.420;10.952;2022-09-20T18:01:17;100756.25;;;19.64;55.44
23427;BME280;41148;45.420;10.952;2022-09-20T18:03:46;100759.81;;;19.64;55.75
23427;BME280;41148;45.420;10.952;2022-09-20T18:06:15;100753.84;;;19.59;56.00
23427;BME280;41148;45.420;10.952;2022-09-20T18:08:44;100764.91;;;19.55;56.27
23427;BME280;41148;45.420;10.952;2022-09-20T18:11:12;100754.63;;;19.61;56.27
23427;BME280;41148;45.420;10.952;2022-09-20T18:13:39;100763.38;;;19.65;56.04
23427;BME280;41148;45.420;10.952;2022-09-20T18:16:07;100764.94;;;19.69;56.01
23427;BME280;41148;45.420;10.952;2022-09-20T18:18:34;100767.31;;;19.73;55.81
23427;BME280;41148;45.420;10.952;2022-09-20T18:21:11;100775.31;;;19.75;55.53